sensor_id;sensor_type;location;lat;lon;timestamp;pressure;altitude;pressure_sealevel;temperature;humidity
43683;BME280;29285;52.128;21.060;2022-10-16T00:04:51;100453.20;;;14.53;68.03
43683;BME280;29285;52.128;21.060;2022-10-16T00:09:52;100451.80;;;14.56;68.02
43683;BME280;29285;52.128;21.060;2022-10-16T00:14:53;100455.77;;;14.54;68.02
43683;BME280;29285;52.128;21.060;2022-10-16T00:19:55;100453.47;;;14.59;68.06
43683;BME280;29285;52.128;21.060;2022-10-16T00:24:56;100448.83;;;14.67;68.15
43683;BME280;29285;52.128;21.060;2022-10-16T00:29:57;100448.70;;;14.72;68.23
43683;BME280;29285;52.128;21.060;2022-10-16T00:34:59;100453.42;;;14.75;68.20
43683;BME280;29285;52.128;21.060;2022-10-16T00:40:00;100447.22;;;14.78;68.22
43683;BME280;29285;52.128;21.060;2022-10-16T00:45:01;100447.14;;;14.81;68.21
43683;BME280;29285;52.128;21.060;2022-10-16T00:50:08;100457.36;;;14.74;68.13
43683;BME280;29285;52.128;21.060;2022-10-16T00:55:12;100458.07;;;14.65;68.07
43683;BME280;29285;52.128;21.060;2022-10-16T01:00:16;100474.86;;;14.58;68.05
43683;BME280;29285;52.128;21.060;2022-10-16T01:05:19;100470.45;;;14.45;67.99
43683;BME280;29285;52.128;21.060;2022-10-16T01:10:33;100459.22;;;14.41;68.02
43683;BME280;29285;52.128;21.060;2022-10-16T01:15:48;100467.75;;;14.48;68.15
43683;BME280;29285;52.128;21.060;2022-10-16T01:20:59;100478.07;;;14.53;68.25
43683;BME280;29285;52.128;21.060;2022-10-16T01:26:09;100469.38;;;14.52;68.26
43683;BME280;29285;52.128;21.060;2022-10-16T01:31:24;100469.77;;;14.53;68.25
43683;BME280;29285;52.128;21.060;2022-10-16T01:36:29;100472.39;;;14.53;68.29
43683;BME280;29285;52.128;21.060;2022-10-16T01:41:33;100482.83;;;14.55;68.35
43683;BME280;29285;52.128;21.060;2022-10-16T01:46:37;100487.63;;;14.54;68.36
43683;BME280;29285;52.128;21.060;2022-10-16T01:51:40;100494.73;;;14.50;68.36
43683;BME280;29285;52.128;21.060;2022-10-16T01:56:44;100487.03;;;14.46;68.40
43683;BME280;29285;52.128;21.060;2022-10-16T02:01:54;100484.30;;;14.49;68.48
43683;BME280;29285;52.128;21.060;2022-10-16T02:06:57;100485.92;;;14.53;68.61
43683;BME280;29285;52.128;21.060;2022-10-16T02:11:58;100473.59;;;14.56;68.74
43683;BME280;29285;52.128;21.060;2022-10-16T02:17:09;100477.36;;;14.63;68.87
43683;BME280;29285;52.128;21.060;2022-10-16T02:22:08;100478.95;;;14.67;68.95
43683;BME280;29285;52.128;21.060;2022-10-16T02:32:18;100474.81;;;14.75;69.05
43683;BME280;29285;52.128;21.060;2022-10-16T02:37:21;100474.37;;;14.75;69.06
43683;BME280;29285;52.128;21.060;2022-10-16T02:42:27;100476.55;;;14.76;69.11
43683;BME280;29285;52.128;21.060;2022-10-16T02:47:30;100478.30;;;14.75;69.13
43683;BME280;29285;52.128;21.060;2022-10-16T02:52:31;100481.36;;;14.75;69.15
43683;BME280;29285;52.128;21.060;2022-10-16T02:57:33;100489.38;;;14.68;69.09
43683;BME280;29285;52.128;21.060;2022-10-16T03:02:34;100494.22;;;14.67;69.12
43683;BME280;29285;52.128;21.060;2022-10-16T03:07:35;100496.92;;;14.64;69.16
43683;BME280;29285;52.128;21.060;2022-10-16T03:12:36;100498.34;;;14.61;69.18
43683;BME280;29285;52.128;21.060;2022-10-16T03:17:37;100507.86;;;14.49;69.11
43683;BME280;29285;52.128;21.060;2022-10-16T03:22:39;100508.02;;;14.44;69.07
43683;BME280;29285;52.128;21.060;2022-10-16T03:27:40;100505.44;;;14.42;69.14
43683;BME280;29285;52.128;21.060;2022-10-16T03:32:41;100516.45;;;14.39;69.17
43683;BME280;29285;52.128;21.060;2022-10-16T03:37:44;100515.91;;;14.27;69.15
43683;BME280;29285;52.128;21.060;2022-10-16T03:42:45;100520.35;;;14.24;69.17
43683;BME280;29285;52.128;21.060;2022-10-16T03:47:47;100524.06;;;14.16;69.20
43683;BME280;29285;52.128;21.060;2022-10-16T03:52:48;100526.53;;;14.21;69.31
43683;BME280;29285;52.128;21.060;2022-10-16T03:57:49;100531.04;;;14.16;69.37
43683;BME280;29285;52.128;21.060;2022-10-16T04:02:50;100531.62;;;14.11;69.36
43683;BME280;29285;52.128;21.060;2022-10-16T04:07:52;100524.41;;;14.04;69.39
43683;BME280;29285;52.128;21.060;2022-10-16T04:12:53;100534.88;;;14.04;69.45
43683;BME280;29285;52.128;21.060;2022-10-16T04:17:56;100535.35;;;14.02;69.51
43683;BME280;29285;52.128;21.060;2022-10-16T04:22:57;100538.95;;;13.98;69.52
43683;BME280;29285;52.128;21.060;2022-10-16T04:27:58;100531.27;;;13.92;69.52
43683;BME280;29285;52.128;21.060;2022-10-16T04:32:59;100547.88;;;13.90;69.57
43683;BME280;29285;52.128;21.060;2022-10-16T04:38:01;100545.83;;;13.85;69.60
43683;BME280;29285;52.128;21.060;2022-10-16T04:43:02;100547.58;;;13.85;69.63
43683;BME280;29285;52.128;21.060;2022-10-16T04:48:04;100552.17;;;13.76;69.64
43683;BME280;29285;52.128;21.060;2022-10-16T04:53:06;100554.41;;;13.74;69.67
43683;BME280;29285;52.128;21.060;2022-10-16T04:58:07;100564.61;;;13.67;69.71
43683;BME280;29285;52.128;21.060;2022-10-16T05:03:09;100567.94;;;13.55;69.69
43683;BME280;29285;52.128;21.060;2022-10-16T05:08:10;100568.57;;;13.47;69.74
43683;BME280;29285;52.128;21.060;2022-10-16T05:13:15;100572.18;;;13.41;69.80
43683;BME280;29285;52.128;21.060;2022-10-16T05:18:16;100577.06;;;13.37;69.86
43683;BME280;29285;52.128;21.060;2022-10-16T05:23:18;100572.83;;;13.31;69.92
43683;BME280;29285;52.128;21.060;2022-10-16T05:28:19;100588.66;;;13.25;69.95
43683;BME280;29285;52.128;21.060;2022-10-16T05:33:20;100588.28;;;13.22;70.03
43683;BME280;29285;52.128;21.060;2022-10-16T05:38:22;100588.81;;;13.19;70.09
43683;BME280;29285;52.128;21.060;2022-10-16T05:43:23;100592.23;;;13.21;70.20
43683;BME280;29285;52.128;21.060;2022-10-16T05:48:24;100580.88;;;13.22;70.26
43683;BME280;29285;52.128;21.060;2022-10-16T05:53:29;100592.58;;;13.25;70.32
43683;BME280;29285;52.128;21.060;2022-10-16T05:58:32;100583.38;;;13.28;70.39
43683;BME280;29285;52.128;21.060;2022-10-16T06:03:36;100592.92;;;13.29;70.45
43683;BME280;29285;52.128;21.060;2022-10-16T06:08:37;100606.37;;;13.32;70.47
43683;BME280;29285;52.128;21.060;2022-10-16T06:13:39;100620.48;;;13.43;70.49
43683;BME280;29285;52.128;21.060;2022-10-16T06:18:42;100611.42;;;13.40;70.52
43683;BME280;29285;52.128;21.060;2022-10-16T06:23:43;100610.86;;;13.45;70.55
43683;BME280;29285;52.128;21.060;2022-10-16T06:28:46;100618.24;;;13.47;70.59
43683;BME280;29285;52.128;21.060;2022-10-16T06:33:51;100620.80;;;13.50;70.67
43683;BME280;29285;52.128;21.060;2022-10-16T06:38:53;100619.86;;;13.53;70.70
43683;BME280;29285;52.128;21.060;2022-10-16T06:43:54;100627.89;;;13.63;70.77
43683;BME280;29285;52.128;21.060;2022-10-16T06:48:55;100629.98;;;13.67;70.81
43683;BME280;29285;52.128;21.060;2022-10-16T06:53:56;100630.85;;;13.67;70.84
43683;BME280;29285;52.128;21.060;2022-10-16T06:58:57;100644.14;;;13.76;70.87
43683;BME280;29285;52.128;21.060;2022-10-16T07:03:58;100645.30;;;13.82;70.95
43683;BME280;29285;52.128;21.060;2022-10-16T07:09:01;100642.76;;;13.97;71.06
43683;BME280;29285;52.128;21.060;2022-10-16T07:14:04;100654.23;;;14.08;71.14
43683;BME280;29285;52.128;21.060;2022-10-16T07:19:06;100664.64;;;14.11;71.15
43683;BME280;29285;52.128;21.060;2022-10-16T07:24:12;100670.68;;;14.13;71.18
43683;BME280;29285;52.128;21.060;2022-10-16T07:29:16;100667.09;;;14.18;71.21
43683;BME280;29285;52.128;21.060;2022-10-16T07:34:21;100670.55;;;14.20;71.23
43683;BME280;29285;52.128;21.060;2022-10-16T07:39:22;100664.17;;;14.30;71.28
43683;BME280;29285;52.128;21.060;2022-10-16T07:44:24;100661.61;;;14.43;71.37
43683;BME280;29285;52.128;21.060;2022-10-16T07:49:25;100639.77;;;14.61;71.39
43683;BME280;29285;52.128;21.060;2022-10-16T07:54:26;100655.73;;;14.85;71.47
43683;BME280;29285;52.128;21.060;2022-10-16T07:59:27;100670.84;;;15.05;71.45
43683;BME280;29285;52.128;21.060;2022-10-16T08:04:29;100666.61;;;15.16;71.35
43683;BME280;29285;52.128;21.060;2022-10-16T08:09:30;100664.23;;;15.37;71.33
43683;BME280;29285;52.128;21.060;2022-10-16T08:14:31;100664.39;;;15.46;71.25
43683;BME280;29285;52.128;21.060;2022-10-16T08:19:32;100674.88;;;15.46;71.01
43683;BME280;29285;52.128;21.060;2022-10-16T08:24:35;100672.94;;;15.53;70.90
43683;BME280;29285;52.128;21.060;2022-10-16T08:29:39;100678.38;;;15.60;70.81
43683;BME280;29285;52.128;21.060;2022-10-16T08:34:40;100683.50;;;15.65;70.71
43683;BME280;29285;52.128;21.060;2022-10-16T08:39:41;100680.56;;;15.87;70.76
43683;BME280;29285;52.128;21.060;2022-10-16T08:50:22;100699.73;;;16.18;70.67
43683;BME280;29285;52.128;21.060;2022-10-16T08:55:28;100705.03;;;16.17;70.44
43683;BME280;29285;52.128;21.060;2022-10-16T09:00:29;100709.92;;;16.14;70.26
43683;BME280;29285;52.128;21.060;2022-10-16T09:11:01;100710.23;;;16.18;70.15
43683;BME280;29285;52.128;21.060;2022-10-16T09:16:12;100714.97;;;16.20;70.08
43683;BME280;29285;52.128;21.060;2022-10-16T09:21:29;100725.64;;;16.41;70.15
43683;BME280;29285;52.128;21.060;2022-10-16T09:26:32;100730.71;;;16.47;70.14
43683;BME280;29285;52.128;21.060;2022-10-16T09:31:33;100711.19;;;16.54;69.99
43683;BME280;29285;52.128;21.060;2022-10-16T09:36:40;100707.69;;;16.79;70.03
43683;BME280;29285;52.128;21.060;2022-10-16T09:41:44;100698.16;;;17.01;69.98
43683;BME280;29285;52.128;21.060;2022-10-16T09:46:46;100695.62;;;17.11;69.79
43683;BME280;29285;52.128;21.060;2022-10-16T09:51:47;100703.89;;;17.24;69.68
43683;BME280;29285;52.128;21.060;2022-10-16T09:56:48;100682.50;;;17.33;69.48
43683;BME280;29285;52.128;21.060;2022-10-16T10:01:54;100687.13;;;17.39;69.25
43683;BME280;29285;52.128;21.060;2022-10-16T10:06:56;100691.16;;;17.48;69.13
43683;BME280;29285;52.128;21.060;2022-10-16T10:12:01;100691.69;;;17.56;69.06
43683;BME280;29285;52.128;21.060;2022-10-16T10:22:18;100701.23;;;17.81;68.84
43683;BME280;29285;52.128;21.060;2022-10-16T10:27:31;100691.59;;;17.92;68.62
43683;BME280;29285;52.128;21.060;2022-10-16T10:42:53;100688.16;;;18.54;68.37
43683;BME280;29285;52.128;21.060;2022-10-16T10:54:09;100684.23;;;18.73;67.78
43683;BME280;29285;52.128;21.060;2022-10-16T11:09:44;100684.06;;;18.97;67.25
43683;BME280;29285;52.128;21.060;2022-10-16T11:30:16;100669.72;;;19.02;65.67
43683;BME280;29285;52.128;21.060;2022-10-16T11:35:21;100675.47;;;19.02;65.52
43683;BME280;29285;52.128;21.060;2022-10-16T11:40:31;100683.77;;;19.03;65.46
43683;BME280;29285;52.128;21.060;2022-10-16T11:45:51;100680.62;;;19.05;65.41
43683;BME280;29285;52.128;21.060;2022-10-16T11:50:54;100689.84;;;19.05;65.22
43683;BME280;29285;52.128;21.060;2022-10-16T11:55:57;100695.63;;;19.13;65.00
43683;BME280;29285;52.128;21.060;2022-10-16T12:06:30;100671.06;;;19.50;64.74
43683;BME280;29285;52.128;21.060;2022-10-16T12:11:47;100667.41;;;19.80;64.52
43683;BME280;29285;52.128;21.060;2022-10-16T12:21:57;100678.85;;;20.07;64.20
43683;BME280;29285;52.128;21.060;2022-10-16T12:26:59;100684.25;;;19.95;63.81
43683;BME280;29285;52.128;21.060;2022-10-16T12:32:02;100677.47;;;19.63;63.22
43683;BME280;29285;52.128;21.060;2022-10-16T12:37:13;100683.74;;;19.52;63.13
43683;BME280;29285;52.128;21.060;2022-10-16T12:52:38;100686.59;;;19.56;63.09
43683;BME280;29285;52.128;21.060;2022-10-16T13:30:42;100705.30;;;19.51;62.52
43683;BME280;29285;52.128;21.060;2022-10-16T13:35:48;100714.36;;;19.45;62.73
43683;BME280;29285;52.128;21.060;2022-10-16T13:40:52;100724.28;;;19.40;62.90
43683;BME280;29285;52.128;21.060;2022-10-16T13:46:05;100726.69;;;19.36;62.98
43683;BME280;29285;52.128;21.060;2022-10-16T13:51:15;100724.83;;;19.38;63.17
43683;BME280;29285;52.128;21.060;2022-10-16T13:56:18;100734.83;;;19.40;63.24
43683;BME280;29285;52.128;21.060;2022-10-16T14:01:25;100735.25;;;19.41;63.32
43683;BME280;29285;52.128;21.060;2022-10-16T14:06:29;100730.29;;;19.44;63.38
43683;BME280;29285;52.128;21.060;2022-10-16T14:11:30;100732.06;;;19.43;63.43
43683;BME280;29285;52.128;21.060;2022-10-16T14:16:32;100716.41;;;19.49;63.54
43683;BME280;29285;52.128;21.060;2022-10-16T14:21:33;100719.59;;;19.56;63.62
43683;BME280;29285;52.128;21.060;2022-10-16T14:26:40;100720.83;;;19.49;63.59
43683;BME280;29285;52.128;21.060;2022-10-16T14:31:42;100734.35;;;19.32;63.37
43683;BME280;29285;52.128;21.060;2022-10-16T14:36:43;100737.31;;;19.35;63.55
43683;BME280;29285;52.128;21.060;2022-10-16T14:41:45;100747.42;;;19.25;63.50
43683;BME280;29285;52.128;21.060;2022-10-16T14:46:48;100744.30;;;19.16;63.54
43683;BME280;29285;52.128;21.060;2022-10-16T14:51:49;100752.41;;;19.12;63.56
43683;BME280;29285;52.128;21.060;2022-10-16T14:56:52;100742.46;;;19.08;63.64
43683;BME280;29285;52.128;21.060;2022-10-16T15:01:55;100747.03;;;19.04;63.67
43683;BME280;29285;52.128;21.060;2022-10-16T15:06:56;100749.70;;;19.03;63.78
43683;BME280;29285;52.128;21.060;2022-10-16T15:11:57;100755.58;;;18.99;63.83
43683;BME280;29285;52.128;21.060;2022-10-16T15:16:58;100747.41;;;18.95;63.85
43683;BME280;29285;52.128;21.060;2022-10-16T15:21:59;100746.53;;;18.95;63.94
43683;BME280;29285;52.128;21.060;2022-10-16T15:27:00;100764.22;;;18.92;63.97
43683;BME280;29285;52.128;21.060;2022-10-16T15:32:01;100765.01;;;18.84;63.97
43683;BME280;29285;52.128;21.060;2022-10-16T15:37:03;100767.80;;;18.81;64.06
43683;BME280;29285;52.128;21.060;2022-10-16T15:42:04;100778.08;;;18.77;64.17
43683;BME280;29285;52.128;21.060;2022-10-16T15:47:07;100770.77;;;18.73;64.23
43683;BME280;29285;52.128;21.060;2022-10-16T15:52:08;100774.19;;;18.75;64.40
43683;BME280;29285;52.128;21.060;2022-10-16T15:57:09;100778.33;;;18.91;64.79
43683;BME280;29285;52.128;21.060;2022-10-16T16:02:11;100778.39;;;18.90;64.89
43683;BME280;29285;52.128;21.060;2022-10-16T16:07:12;100794.48;;;18.94;64.95
43683;BME280;29285;52.128;21.060;2022-10-16T16:12:13;100801.12;;;18.92;64.97
43683;BME280;29285;52.128;21.060;2022-10-16T16:17:14;100798.50;;;18.82;64.89
43683;BME280;29285;52.128;21.060;2022-10-16T16:22:16;100801.59;;;18.71;64.87
43683;BME280;29285;52.128;21.060;2022-10-16T16:27:17;100811.14;;;18.63;64.89
43683;BME280;29285;52.128;21.060;2022-10-16T16:32:20;100821.42;;;18.59;64.99
43683;BME280;29285;52.128;21.060;2022-10-16T16:37:21;100827.34;;;18.54;65.08
43683;BME280;29285;52.128;21.060;2022-10-16T16:42:22;100823.98;;;18.50;65.18
43683;BME280;29285;52.128;21.060;2022-10-16T16:47:24;100827.33;;;18.44;65.25
43683;BME280;29285;52.128;21.060;2022-10-16T16:52:25;100830.95;;;18.41;65.34
43683;BME280;29285;52.128;21.060;2022-10-16T16:57:29;100844.33;;;18.36;65.41
43683;BME280;29285;52.128;21.060;2022-10-16T17:02:30;100850.35;;;18.28;65.48
43683;BME280;29285;52.128;21.060;2022-10-16T17:07:31;100851.98;;;18.20;65.53
43683;BME280;29285;52.128;21.060;2022-10-16T17:12:34;100857.44;;;18.16;65.63
43683;BME280;29285;52.128;21.060;2022-10-16T17:17:36;100869.41;;;18.12;65.75
43683;BME280;29285;52.128;21.060;2022-10-16T17:22:37;100864.59;;;18.00;65.80
43683;BME280;29285;52.128;21.060;2022-10-16T17:27:38;100868.03;;;17.90;65.91
43683;BME280;29285;52.128;21.060;2022-10-16T17:32:39;100883.77;;;17.80;66.03
43683;BME280;29285;52.128;21.060;2022-10-16T17:37:40;100883.27;;;17.70;66.18
43683;BME280;29285;52.128;21.060;2022-10-16T17:42:41;100894.87;;;17.64;66.36
43683;BME280;29285;52.128;21.060;2022-10-16T17:47:42;100892.97;;;17.56;66.53
43683;BME280;29285;52.128;21.060;2022-10-16T17:52:43;100905.52;;;17.49;66.70
43683;BME280;29285;52.128;21.060;2022-10-16T17:57:45;100913.61;;;17.43;66.87
43683;BME280;29285;52.128;21.060;2022-10-16T18:02:47;100909.05;;;17.36;67.06
43683;BME280;29285;52.128;21.060;2022-10-16T18:07:49;100918.00;;;17.30;67.23
43683;BME280;29285;52.128;21.060;2022-10-16T18:12:51;100930.28;;;17.30;67.40
43683;BME280;29285;52.128;21.060;2022-10-16T18:17:52;100927.73;;;17.28;67.58
43683;BME280;29285;52.128;21.060;2022-10-16T18:22:54;100934.92;;;17.23;67.75
43683;BME280;29285;52.128;21.060;2022-10-16T18:27:55;100935.45;;;17.19;67.91
43683;BME280;29285;52.128;21.060;2022-10-16T18:32:57;100938.21;;;17.16;68.08
43683;BME280;29285;52.128;21.060;2022-10-16T18:37:58;100938.21;;;17.16;68.28
43683;BME280;29285;52.128;21.060;2022-10-16T18:43:00;100938.87;;;17.10;68.40
43683;BME280;29285;52.128;21.060;2022-10-16T18:48:01;100945.72;;;17.00;68.54
43683;BME280;29285;52.128;21.060;2022-10-16T18:53:03;100950.31;;;16.93;68.73
43683;BME280;29285;52.128;21.060;2022-10-16T18:58:06;100956.13;;;16.90;68.89
43683;BME280;29285;52.128;21.060;2022-10-16T19:03:07;100952.70;;;16.88;69.09
43683;BME280;29285;52.128;21.060;2022-10-16T19:08:08;100954.51;;;16.86;69.23
43683;BME280;29285;52.128;21.060;2022-10-16T19:13:09;100959.92;;;16.81;69.36
43683;BME280;29285;52.128;21.060;2022-10-16T19:18:10;100966.94;;;16.80;69.51
43683;BME280;29285;52.128;21.060;2022-10-16T19:23:11;100973.20;;;16.76;69.63
43683;BME280;29285;52.128;21.060;2022-10-16T19:28:12;100994.38;;;16.72;69.73
43683;BME280;29285;52.128;21.060;2022-10-16T19:33:13;100994.62;;;16.64;69.81
43683;BME280;29285;52.128;21.060;2022-10-16T19:38:14;101006.09;;;16.61;69.90
43683;BME280;29285;52.128;21.060;2022-10-16T19:43:15;101005.36;;;16.56;70.02
43683;BME280;29285;52.128;21.060;2022-10-16T19:48:16;101017.23;;;16.54;70.14
43683;BME280;29285;52.128;21.060;2022-10-16T19:53:17;101014.80;;;16.48;70.27
43683;BME280;29285;52.128;21.060;2022-10-16T19:58:18;101013.16;;;16.44;70.37
43683;BME280;29285;52.128;21.060;2022-10-16T20:03:19;101020.64;;;16.43;70.49
43683;BME280;29285;52.128;21.060;2022-10-16T20:08:20;101030.06;;;16.35;70.62
43683;BME280;29285;52.128;21.060;2022-10-16T20:13:22;101035.94;;;16.28;70.72
43683;BME280;29285;52.128;21.060;2022-10-16T20:18:23;101039.63;;;16.21;70.83
43683;BME280;29285;52.128;21.060;2022-10-16T20:23:24;101041.99;;;16.16;70.96
43683;BME280;29285;52.128;21.060;2022-10-16T20:28:25;101048.77;;;16.08;71.04
43683;BME280;29285;52.128;21.060;2022-10-16T20:33:26;101047.17;;;16.02;71.13
43683;BME280;29285;52.128;21.060;2022-10-16T20:38:27;101056.09;;;15.96;71.24
43683;BME280;29285;52.128;21.060;2022-10-16T20:43:28;101061.95;;;15.88;71.37
43683;BME280;29285;52.128;21.060;2022-10-16T20:48:30;101076.05;;;15.84;71.48
43683;BME280;29285;52.128;21.060;2022-10-16T20:53:31;101089.34;;;15.78;71.57
43683;BME280;29285;52.128;21.060;2022-10-16T20:58:32;101086.95;;;15.68;71.69
43683;BME280;29285;52.128;21.060;2022-10-16T21:03:35;101086.61;;;15.64;71.82
43683;BME280;29285;52.128;21.060;2022-10-16T21:08:37;101098.98;;;15.59;71.94
43683;BME280;29285;52.128;21.060;2022-10-16T21:13:39;101105.70;;;15.53;72.07
43683;BME280;29285;52.128;21.060;2022-10-16T21:18:41;101100.17;;;15.45;72.20
43683;BME280;29285;52.128;21.060;2022-10-16T21:23:43;101103.83;;;15.40;72.31
43683;BME280;29285;52.128;21.060;2022-10-16T21:28:44;101095.64;;;15.34;72.50
43683;BME280;29285;52.128;21.060;2022-10-16T21:33:46;101100.98;;;15.31;72.63
43683;BME280;29285;52.128;21.060;2022-10-16T21:38:48;101109.87;;;15.24;72.76
43683;BME280;29285;52.128;21.060;2022-10-16T21:43:49;101117.88;;;15.17;72.90
43683;BME280;29285;52.128;21.060;2022-10-16T21:48:52;101123.22;;;15.13;73.07
43683;BME280;29285;52.128;21.060;2022-10-16T21:53:53;101128.16;;;15.07;73.20
43683;BME280;29285;52.128;21.060;2022-10-16T21:58:55;101123.88;;;15.03;73.32
43683;BME280;29285;52.128;21.060;2022-10-16T22:03:57;101113.05;;;14.99;73.41
43683;BME280;29285;52.128;21.060;2022-10-16T22:08:59;101128.42;;;14.94;73.53
43683;BME280;29285;52.128;21.060;2022-10-16T22:14:01;101132.08;;;14.87;73.64
43683;BME280;29285;52.128;21.060;2022-10-16T22:19:04;101139.59;;;14.83;73.77
43683;BME280;29285;52.128;21.060;2022-10-16T22:24:10;101145.30;;;14.82;73.91
43683;BME280;29285;52.128;21.060;2022-10-16T22:29:12;101146.22;;;14.80;74.02
43683;BME280;29285;52.128;21.060;2022-10-16T22:34:14;101148.45;;;14.77;74.09
43683;BME280;29285;52.128;21.060;2022-10-16T22:39:15;101149.25;;;14.81;74.19
43683;BME280;29285;52.128;21.060;2022-10-16T22:44:17;101155.83;;;15.01;74.56
43683;BME280;29285;52.128;21.060;2022-10-16T22:49:18;101172.20;;;14.89;74.55
43683;BME280;29285;52.128;21.060;2022-10-16T22:54:20;101171.36;;;14.89;74.53
43683;BME280;29285;52.128;21.060;2022-10-16T22:59:21;101171.50;;;14.82;74.49
43683;BME280;29285;52.128;21.060;2022-10-16T23:04:22;101174.19;;;14.78;74.50
43683;BME280;29285;52.128;21.060;2022-10-16T23:09:23;101178.14;;;14.76;74.56
43683;BME280;29285;52.128;21.060;2022-10-16T23:14:24;101175.27;;;14.66;74.58
43683;BME280;29285;52.128;21.060;2022-10-16T23:19:25;101174.52;;;14.59;74.62
43683;BME280;29285;52.128;21.060;2022-10-16T23:24:26;101174.59;;;14.56;74.71
43683;BME280;29285;52.128;21.060;2022-10-16T23:29:32;101182.09;;;14.52;74.79
43683;BME280;29285;52.128;21.060;2022-10-16T23:34:33;101188.27;;;14.48;74.86
43683;BME280;29285;52.128;21.060;2022-10-16T23:39:34;101193.99;;;14.46;74.96
43683;BME280;29285;52.128;21.060;2022-10-16T23:44:35;101206.72;;;14.41;75.03
43683;BME280;29285;52.128;21.060;2022-10-16T23:49:38;101199.35;;;14.39;75.13
43683;BME280;29285;52.128;21.060;2022-10-16T23:54:39;101212.44;;;14.39;75.21
43683;BME280;29285;52.128;21.060;2022-10-16T23:59:40;101226.84;;;14.39;75.29
